Alamo, Nevada Weather observations

Data are for observation ending at time listed.
 Day   Time    Ave.   Ave.  Ave.  Vector   Max.   Stn.    Total    Solar   Ave.  
  of    of     Air    Rel.  Wind   Wind    Wind   Baro.  Precip.   Rad.    Soil  
Year   Day     Temp.  Hum.  Speed  Dir.    Gust   Pres.                    Temp. 
2014   (PST)    F      %     mph   deg.    mph     mb.     in.     W/m2     F   
------------------------------------------------------------------------------
 350   15:40   49.5    38    0.1   173      1.2   896.0    0.00      62    47.9
 350   15:50   48.8    40    0.3   178      1.9   896.1    0.00      40    47.6
 350   16:00   47.9    42    0.9   200      2.0   896.2    0.00      27    47.4
 350   16:10   46.9    46    1.0   193      1.9   896.2    0.00      16    47.2
 350   16:20   46.2    47    0.4   187      1.3   896.3    0.00       9    46.9
 350   16:30   45.4    49    0.0     0      0.0   896.3    0.00       0    46.7
 350   16:40   44.5    52    0.3   191      1.3   896.3    0.00       0    46.4
 350   16:50   43.9    52    0.0     0      0.0   896.3    0.00       0    46.1
 350   17:00   43.3    54    0.0     0      0.0   896.3    0.00       0    45.8
 350   17:10   42.9    55    0.0     0      0.0   896.2    0.00       0    45.6
 350   17:20   42.3    57    0.1   312      0.7   896.2    0.00       0    45.3
 350   17:30   41.8    60    0.2     7      1.1   896.2    0.00       0    45.1
 350   17:40   41.4    62    0.0   356      0.6   896.3    0.00       0    44.8
 350   17:50   40.7    63    0.5    16      1.2   896.4    0.00       0    44.6
 350   18:00   40.0    64    0.0     0      0.0   896.4    0.00       0    44.4
 350   18:10   39.9    66    0.1   216      1.0   896.5    0.00       0    44.2
 350   18:20   39.7    66    0.3   209      1.0   896.6    0.00       0    44.0
 350   18:30   39.0    68    0.0     0      0.0   896.7    0.00       0    43.8
 350   18:40   38.6    68    0.0     0      0.0   896.7    0.00       0    43.6
 350   18:50   38.7    68    0.0    71      0.9   896.7    0.00       0    43.5
 350   19:00   38.6    69    0.0   293      0.7   896.6    0.00       0    43.3
 350   19:10   38.2    70    0.6   267      1.1   896.6    0.00       0    43.1
 350   19:20   37.9    71    0.0   219      0.7   896.7    0.00       0    43.0
 350   19:30   37.4    72    0.0     0      0.0   896.7    0.00       0    42.8
 350   19:40   36.9    74    1.1    20      2.4   896.8    0.00       0    42.6
 350   19:50   36.5    76    1.2    20      2.1   896.7    0.00       0    42.5
 350   20:00   36.3    77    0.5   309      1.4   896.8    0.00       0    42.4
 350   20:10   35.9    78    0.7   293      1.4   896.8    0.00       0    42.2
 350   20:20   35.7    78    0.4    20      1.3   896.9    0.00       0    42.1
 350   20:30   35.5    78    0.6    52      1.5   896.9    0.00       0    41.9
 350   20:40   35.6    79    0.6    26      1.5   896.9    0.00       0    41.8
 350   20:50   35.2    80    0.3   317      0.8   896.8    0.00       0    41.7
 350   21:00   34.8    80    0.4   316      1.0   896.8    0.00       0    41.6
 350   21:10   34.7    81    0.6     5      1.5   896.8    0.00       0    41.5
 350   21:20   34.6    81    0.5   346      1.5   896.8    0.00       0    41.3
 350   21:30   34.7    82    0.8    17      1.6   896.8    0.00       0    41.2
 350   21:40   34.8    83    0.8    27      1.2   896.9    0.00       0    41.2
 350   21:50   34.9    83    0.9     3      1.8   896.9    0.00       0    41.1
 350   22:00   35.2    82    0.6   346      1.2   896.9    0.00       0    41.1
 350   22:10   35.8    82    0.2     2      1.1   896.9    0.00       0    41.1
 350   22:20   36.1    81    0.4   227      1.5   897.0    0.00       0    41.1
 350   22:30   36.1    81    0.3   182      2.2   897.1    0.00       0    41.1
 350   22:40   36.2    81    1.1    75      2.1   897.0    0.00       0    41.1
 350   22:50   36.8    80    0.8    54      1.8   897.1    0.00       0    41.1
 350   23:00   37.0    79    0.4    31      1.3   897.1    0.00       0    41.1
 350   23:10   37.1    78    0.5    36      2.0   897.1    0.00       0    41.1
 350   23:20   37.3    78    0.3   123      1.5   897.1    0.00       0    41.1
 350   23:30   37.3    79    0.8   191      2.3   897.2    0.00       0    41.1
 350   23:40   37.2    80    0.3   126      2.5   897.1    0.00       0    41.1
 350   23:50   37.5    81    1.1   213      5.7   897.1    0.00       0    41.1
 351    0:00   38.9    79    3.2   198      6.0   897.1    0.00       0    41.2
 351    0:10   38.6    82    2.6   201      6.3   897.1    0.00       0    41.2
 351    0:20   38.0    87    1.6   188      4.3   897.1    0.00       0    41.2
 351    0:30   38.6    87    1.1   186      5.3   897.2    0.01       0    41.2
 351    0:40   38.6    88    0.4   185      2.3   897.2    0.01       0    41.2
 351    0:50   38.1    89    0.5   190      2.6   897.2    0.02       0    41.2
 351    1:00   37.7    89    0.5   194      2.9   897.2    0.01       0    41.2
 351    1:10   37.3    90    0.4   186      3.4   897.1    0.00       0    41.2
 351    1:20   37.2    90    0.1   206      1.2   897.0    0.01       0    41.2
 351    1:30   37.2    90    0.7   218      1.6   897.0    0.00       0    41.2
 351    1:40   37.3    90    0.9   215      2.2   896.9    0.01       0    41.2
 351    1:50   37.1    91    1.5   216      2.6   897.0    0.00       0    41.2
 351    2:00   37.2    91    0.0   245      0.5   897.0    0.00       0    41.1
 351    2:10   37.1    92    0.3    66      1.7   897.0    0.00       0    41.1
 351    2:20   37.1    92    0.4    18      1.2   896.9    0.00       0    41.1
 351    2:30   36.9    92    0.9    32      1.5   896.8    0.00       0    41.1
 351    2:40   37.0    93    1.1     7      1.8   896.9    0.00       0    41.1
 351    2:50   37.1    93    0.9   323      2.0   896.9    0.00       0    41.1
 351    3:00   36.9    93    1.2    10      1.9   896.9    0.01       0    41.1
 351    3:10   36.9    93    0.5    16      1.7   896.9    0.01       0    41.1
 351    3:20   37.0    93    0.2   354      1.3   896.8    0.00       0    41.0
 351    3:30   37.1    93    0.8   314      1.5   896.7    0.01       0    41.0
 351    3:40   37.3    93    0.2   296      1.1   896.8    0.00       0    41.0
 351    3:50   37.4    93    0.3   288      1.1   896.8    0.01       0    41.0
 351    4:00   37.3    93    0.0   355      0.6   896.7    0.00       0    41.0
 351    4:10   37.3    93    0.3   296      1.2   896.6    0.00       0    41.0
 351    4:20   37.4    93    0.7   287      1.6   896.6    0.00       0    41.0
 351    4:30   37.4    93    0.7   272      2.0   896.5    0.01       0    41.0
 351    4:40   37.4    93    1.2   289      2.3   896.5    0.00       0    41.0
 351    4:50   37.4    93    1.1   291      2.0   896.5    0.00       0    41.0
 351    5:00   37.4    94    1.4   288      2.6   896.6    0.00       0    41.0
 351    5:10   37.3    94    1.0   315      2.4   896.6    0.00       0    41.0
 351    5:20   37.3    94    0.5   304      2.0   896.6    0.00       0    41.0
 351    5:30   37.2    94    0.1    10      0.8   896.6    0.00       0    41.0
 351    5:40   37.2    94    0.4   350      1.2   896.7    0.00       0    41.0
 351    5:50   37.2    94    0.1    45      1.0   896.8    0.00       0    41.0
 351    6:00   37.3    94    0.0     0      0.0   896.9    0.00       0    41.0
 351    6:10   37.2    94    0.3    15      1.0   897.0    0.00       0    41.0
 351    6:20   37.2    94    1.0    34      1.9   897.1    0.00       0    41.0
 351    6:30   37.1    94    1.3    11      2.6   897.1    0.00       0    41.0
 351    6:40   37.1    94    1.6     4      2.9   897.1    0.00       0    40.9
 351    6:50   37.0    94    1.6   350      3.2   897.0    0.01       0    40.9
 351    7:00   36.8    94    1.2   291      2.7   896.9    0.00       0    40.9
 351    7:10   36.6    94    2.0   287      3.7   896.9    0.00       7    40.8
 351    7:20   36.6    94    1.2   237      2.2   897.1    0.00      14    40.7
 351    7:30   36.7    94    0.9   216      1.8   897.3    0.00      24    40.7
 351    7:40   37.0    94    0.7    73      1.8   897.3    0.00      48    40.6
 351    7:50   37.2    94    1.6    44      2.5   897.4    0.00      42    40.6
 351    8:00   37.4    94    1.3    45      2.7   897.4    0.00      41    40.7
 351    8:10   37.4    94    1.5    23      3.1   897.5    0.00      51    40.8
 351    8:20   37.6    94    2.4    18      6.0   897.5    0.00      67    40.8
 351    8:30   37.9    93    2.1   332      4.5   897.7    0.00      81    40.9
 351    8:40   38.5    92    2.2   311      4.7   897.8    0.00      81    41.0
 351    8:50   38.8    92    2.5   324      4.7   897.9    0.00      81    41.1
 351    9:00   39.1    91    2.1   315      3.5   897.9    0.00      86    41.3
 351    9:10   39.5    90    2.2   314      4.9   898.0    0.00      88    41.5
 351    9:20   39.8    89    2.7   301      5.0   898.1    0.00     104    41.6
 351    9:30   40.3    88    2.8   286      4.2   898.2    0.00     125    41.8
 351    9:40   40.6    88    2.6   303      4.5   898.3    0.00     137    42.0
 351    9:50   41.4    87    2.6   295      4.5   898.3    0.00     161    42.3
 351   10:00   41.5    85    2.6   294      5.3   898.4    0.00     148    42.6
 351   10:10   41.6    84    1.6   292      3.4   898.4    0.00     155    42.9
 351   10:20   42.3    83    1.6   296      3.7   898.4    0.00     155    43.2
 351   10:30   42.1    81    1.5   355      3.0   898.3    0.00     157    43.5
 351   10:40   42.0    81    1.2     7      2.7   898.2    0.00     171    43.7
 351   10:50   42.8    80    0.4   227      1.3   898.0    0.00     183    44.0
 351   11:00   43.3    79    0.8   257      2.0   897.9    0.00     160    44.2
 351   11:10   44.0    76    0.7   224      2.0   897.9    0.00     163    44.5
 351   11:20   44.2    74    0.7   204      1.4   897.8    0.00     162    44.8
 351   11:30   44.2    74    0.8   190      2.4   897.6    0.00     169    45.0
 351   11:40   44.4    72    0.5   209      2.0   897.5    0.00     182    45.2
 351   11:50   45.3    73    0.7   204      3.3   897.4    0.00     296    45.4
 351   12:00   45.4    70    1.0   143      2.8   897.3    0.00     259    45.6
 351   12:10   45.4    69    1.3   208      2.9   897.2    0.00     263    46.0
 351   12:20   45.9    68    1.5   198      3.6   897.2    0.00     225    46.4
 351   12:30   45.8    68    1.6   143      3.7   897.0    0.00     212    46.7
 351   12:40   45.9    69    0.8   142      5.4   896.9    0.00     242    46.9
 351   12:50   46.5    69    2.1   192      5.2   896.8    0.00     232    47.1
 351   13:00   46.2    69    2.4   189      5.3   896.8    0.00     217    47.3
 351   13:10   46.2    69    2.7   185      5.3   896.8    0.00     216    47.5
 351   13:20   46.2    70    1.5   185      4.7   896.8    0.00     189    47.6
 351   13:30   46.4    70    2.1   187      5.9   896.7    0.00     178    47.7
 351   13:40   46.3    70    2.4   188      6.4   896.8    0.00     136    47.8
 351   13:50   46.0    70    1.7   183      5.0   896.8    0.00      98    47.8
 351   14:00   46.0    71    1.0   178      3.7   896.9    0.00      84    47.8
 351   14:10   45.9    71    0.9   181      2.6   896.9    0.00      81    47.7
 351   14:20   45.8    70    1.0   171      3.1   896.9    0.00      82    47.6
 351   14:30   45.7    71    1.1   174      3.1   896.9    0.00      88    47.4
 351   14:40   45.6    71    1.7   183      5.3   896.9    0.00      85    47.3
 351   14:50   45.6    71    1.2   172      5.5   896.9    0.00      88    47.2
 351   15:00   45.4    71    1.6   182      4.8   896.9    0.00      84    47.2
 351   15:10   45.1    71    1.6   176      6.2   897.0    0.00      56    47.0
 351   15:20   44.8    72    1.1   181      5.8   897.1    0.00      35    46.9
 351   15:30   44.6    74    0.7   161      2.6   897.2    0.00      26    46.8

Return to Alamo, Nevada graphs page.


Western Regional Climate Center,wrcc@dri.edu